createdAt,value
2023-02-08T00:02:20.071Z,40.77
2023-02-08T00:08:23.498Z,37.00
2023-02-08T00:14:26.918Z,33.53
2023-02-08T00:20:32.332Z,33.07
2023-02-08T00:26:35.736Z,34.20
2023-02-08T00:32:39.134Z,35.53
2023-02-08T00:38:43.907Z,27.10
2023-02-08T00:44:47.318Z,31.57
2023-02-08T00:50:58.796Z,32.17
2023-02-08T00:57:03.586Z,32.30
2023-02-08T01:03:07.167Z,32.03
2023-02-08T01:09:10.554Z,31.87
2023-02-08T01:15:15.369Z,31.90
2023-02-08T01:21:19.566Z,29.30
2023-02-08T01:27:22.966Z,36.17
2023-02-08T01:33:27.968Z,33.13
2023-02-08T01:39:31.494Z,31.00
2023-02-08T01:45:34.865Z,76.27
2023-02-08T01:51:41.487Z,32.73
2023-02-08T01:57:45.636Z,29.83
2023-02-08T02:03:49.173Z,32.33
2023-02-08T02:09:55.389Z,33.27
2023-02-08T02:15:58.954Z,33.93
2023-02-08T02:22:07.377Z,34.13
2023-02-08T02:28:20.257Z,32.60
2023-02-08T02:34:28.103Z,29.50
2023-02-08T02:40:36.315Z,29.73
2023-02-08T02:46:42.296Z,31.70
2023-02-08T02:52:48.670Z,28.93
2023-02-08T02:58:53.123Z,30.80
2023-02-08T03:04:57.614Z,30.70
2023-02-08T03:11:20.248Z,25.57
2023-02-08T03:17:36.647Z,26.77
2023-02-08T03:23:43.040Z,33.13
2023-02-08T03:29:51.873Z,31.93
2023-02-08T03:35:57.501Z,32.47
2023-02-08T03:42:02.260Z,31.93
2023-02-08T03:48:08.902Z,26.97
2023-02-08T03:54:14.276Z,28.60
2023-02-08T04:00:19.083Z,30.17
2023-02-08T04:06:23.890Z,28.80
2023-02-08T04:12:27.305Z,34.27
2023-02-08T04:18:30.852Z,29.13
2023-02-08T04:24:35.702Z,25.17
2023-02-08T04:30:39.403Z,27.37
2023-02-08T04:36:43.321Z,23.37
2023-02-08T04:42:48.068Z,25.67
2023-02-08T04:48:51.684Z,29.30
2023-02-08T04:54:55.045Z,26.73
2023-02-08T05:00:59.899Z,26.40
2023-02-08T05:07:03.507Z,25.90
2023-02-08T05:13:06.870Z,26.43
2023-02-08T05:19:12.733Z,27.10
2023-02-08T05:25:18.095Z,23.90
2023-02-08T05:31:22.853Z,23.13
2023-02-08T05:37:27.835Z,30.30
2023-02-08T05:43:31.584Z,24.77
2023-02-08T05:49:34.977Z,22.50
2023-02-08T05:55:39.782Z,26.23
2023-02-08T06:01:43.172Z,25.70
2023-02-08T06:07:46.895Z,27.57
2023-02-08T06:13:51.664Z,23.40
2023-02-08T06:19:55.127Z,25.03
2023-02-08T06:25:58.605Z,33.27
2023-02-08T06:32:03.700Z,36.30
2023-02-08T06:38:07.322Z,35.20
2023-02-08T06:44:10.808Z,43.47
2023-02-08T06:50:15.940Z,34.67
2023-02-08T06:56:19.431Z,33.90
2023-02-08T07:02:23.264Z,30.43
2023-02-08T07:08:28.109Z,28.97
2023-02-08T07:14:31.485Z,28.23
2023-02-08T07:20:34.907Z,27.83
2023-02-08T07:26:39.819Z,30.23
2023-02-08T07:32:43.215Z,36.37
2023-02-08T07:38:46.628Z,33.40
2023-02-08T07:44:51.800Z,28.63
2023-02-08T07:50:55.268Z,39.57
2023-02-08T07:56:59.012Z,37.75
2023-02-08T08:03:04.467Z,33.27
2023-02-08T08:09:07.934Z,30.23
2023-02-08T08:15:11.836Z,41.42
2023-02-08T08:21:17.292Z,36.87
2023-02-08T08:27:20.698Z,37.20
2023-02-08T08:33:24.146Z,41.30
2023-02-08T08:39:29.541Z,35.73
2023-02-08T08:45:32.913Z,38.07
2023-02-08T08:51:36.385Z,42.33
2023-02-08T08:57:41.119Z,38.17
2023-02-08T09:03:44.583Z,39.37
2023-02-08T09:09:48.678Z,42.77
2023-02-08T09:15:53.453Z,48.67
2023-02-08T09:21:57.979Z,45.97
2023-02-08T09:28:01.460Z,35.70
2023-02-08T09:34:07.455Z,36.88
2023-02-08T09:40:16.301Z,33.63
2023-02-08T09:46:21.113Z,32.67
2023-02-08T09:52:27.927Z,32.13
2023-02-08T09:58:34.998Z,35.10
2023-02-08T10:04:43.726Z,32.67
2023-02-08T10:10:53.081Z,37.33
2023-02-08T10:17:02.382Z,36.47
2023-02-08T10:23:10.590Z,36.50
2023-02-08T10:29:28.845Z,31.40
2023-02-08T10:35:37.400Z,39.92
2023-02-08T10:41:40.939Z,70.70
2023-02-08T10:47:46.023Z,30.27
2023-02-08T10:53:51.034Z,28.83
2023-02-08T10:59:56.767Z,21.08
2023-02-08T11:06:00.252Z,24.08
2023-02-08T11:12:05.108Z,24.67
2023-02-08T11:18:09.301Z,23.93
2023-02-08T11:24:26.140Z,20.27
2023-02-08T11:30:31.098Z,15.18
2023-02-08T11:36:36.126Z,14.85
2023-02-08T11:42:44.253Z,13.75
2023-02-08T11:48:52.234Z,15.38
2023-02-08T11:54:56.277Z,15.55
2023-02-08T12:01:01.058Z,15.55
2023-02-08T12:07:22.855Z,16.50
2023-02-08T12:13:38.509Z,14.05
2023-02-08T12:20:02.975Z,15.77
2023-02-08T12:26:12.941Z,15.98
2023-02-08T12:32:25.823Z,12.65
2023-02-08T12:38:52.335Z,14.07
2023-02-08T12:45:05.437Z,13.65
2023-02-08T12:51:13.848Z,14.88
2023-02-08T12:57:19.519Z,13.60
2023-02-08T13:03:31.939Z,19.20
2023-02-08T13:09:41.008Z,12.30
2023-02-08T13:15:46.312Z,13.50
2023-02-08T13:21:53.678Z,10.40
2023-02-08T13:27:57.172Z,12.07
2023-02-08T13:34:03.880Z,13.10
2023-02-08T13:40:10.683Z,7.70
2023-02-08T13:46:14.480Z,12.55
2023-02-08T13:52:49.021Z,6.80
2023-02-08T13:59:02.866Z,10.18
2023-02-08T14:05:25.070Z,7.40
2023-02-08T14:11:33.739Z,6.93
2023-02-08T14:17:38.744Z,8.15
2023-02-08T14:23:42.260Z,6.20
2023-02-08T14:29:45.677Z,5.50
2023-02-08T14:35:55.615Z,6.53
2023-02-08T14:42:05.423Z,6.47
2023-02-08T14:48:21.622Z,6.28
2023-02-08T14:54:29.315Z,4.90
2023-02-08T15:00:35.500Z,4.85
2023-02-08T15:06:56.652Z,5.78
2023-02-08T15:13:06.479Z,6.03
2023-02-08T15:19:10.675Z,5.25
2023-02-08T15:25:25.068Z,7.95
2023-02-08T15:31:31.953Z,10.32
2023-02-08T15:37:36.588Z,8.27
2023-02-08T15:43:40.954Z,6.60
2023-02-08T15:49:46.936Z,10.73
2023-02-08T15:55:52.191Z,8.30
2023-02-08T16:01:55.970Z,6.50
2023-02-08T16:08:01.151Z,6.03
2023-02-08T16:14:07.806Z,7.10
2023-02-08T16:20:25.972Z,10.30
2023-02-08T16:26:35.192Z,4.72
2023-02-08T16:32:39.939Z,6.63
2023-02-08T16:38:43.475Z,6.57
2023-02-08T16:45:01.319Z,7.30
2023-02-08T16:51:06.034Z,19.73
2023-02-08T16:57:09.960Z,16.55
2023-02-08T17:03:14.828Z,17.50
2023-02-08T17:09:18.234Z,20.17
2023-02-08T17:15:22.513Z,19.83
2023-02-08T17:21:27.424Z,14.98
2023-02-08T17:27:31.992Z,15.20
2023-02-08T17:33:40.059Z,19.02
2023-02-08T17:39:44.899Z,17.98
2023-02-08T17:45:48.355Z,14.40
2023-02-08T17:51:51.957Z,11.55
2023-02-08T17:57:57.115Z,12.32
2023-02-08T18:04:02.263Z,15.48
2023-02-08T18:10:05.640Z,13.85
2023-02-08T18:16:10.976Z,16.50
2023-02-08T18:22:14.657Z,13.13
2023-02-08T18:28:18.081Z,16.88
2023-02-08T18:34:22.878Z,28.67
2023-02-08T18:40:26.636Z,20.05
2023-02-08T18:46:30.467Z,21.10
2023-02-08T18:52:35.824Z,20.50
2023-02-08T18:58:39.286Z,26.85
2023-02-08T19:04:42.778Z,29.30
2023-02-08T19:10:47.581Z,25.15
2023-02-08T19:16:50.988Z,29.50
2023-02-08T19:22:54.368Z,22.92
2023-02-08T19:28:59.758Z,21.75
2023-02-08T19:35:03.603Z,27.92
2023-02-08T19:41:07.420Z,26.60
2023-02-08T19:47:12.485Z,24.92
2023-02-08T19:53:15.960Z,25.50
2023-02-08T19:59:20.581Z,25.40
2023-02-08T20:05:25.373Z,27.30
2023-02-08T20:11:30.054Z,20.60
2023-02-08T20:17:33.598Z,20.90
2023-02-08T20:23:38.914Z,33.35
2023-02-08T20:29:42.468Z,40.67
2023-02-08T20:35:46.616Z,31.58
2023-02-08T20:41:51.383Z,34.40
2023-02-08T20:47:54.897Z,33.45
2023-02-08T20:53:59.527Z,33.47
2023-02-08T21:00:05.070Z,28.33
2023-02-08T21:06:13.937Z,23.73
2023-02-08T21:12:17.497Z,25.98
2023-02-08T21:18:22.465Z,28.02
2023-02-08T21:24:26.850Z,27.17
2023-02-08T21:30:30.355Z,26.92
2023-02-08T21:36:35.302Z,24.63
2023-02-08T21:42:38.896Z,26.00
2023-02-08T21:49:00.422Z,28.15
2023-02-08T21:55:05.227Z,25.73
2023-02-08T22:01:08.703Z,25.17
2023-02-08T22:07:12.350Z,107.00
2023-02-08T22:13:17.229Z,31.55
2023-02-08T22:19:20.708Z,44.40
2023-02-08T22:25:24.926Z,28.60
2023-02-08T22:31:29.894Z,29.65
2023-02-08T22:37:34.736Z,24.10
2023-02-08T22:43:38.123Z,21.40
2023-02-08T22:49:42.939Z,28.17
2023-02-08T22:55:50.661Z,24.20
2023-02-08T23:01:54.340Z,22.33
2023-02-08T23:07:59.168Z,20.53
2023-02-08T23:14:02.686Z,21.47
2023-02-08T23:20:06.207Z,22.73
2023-02-08T23:26:11.744Z,25.33
2023-02-08T23:32:15.192Z,24.97
2023-02-08T23:38:18.648Z,24.63
2023-02-08T23:44:23.569Z,24.10
2023-02-08T23:50:27.179Z,22.80
2023-02-08T23:56:31.964Z,21.43
